KGHG

Marshfield Municipal - George Harlow Field Airport

Marshfield, Massachusetts, USA
METAR KGHG 232015Z AUTO 14005KT 10SM FEW036 SCT042 BKN049 12/12 A2994 RMK AO2
Observed Flight Rules
Oct-23 @ 20:15 UTC (17 minutes ago) Visual Flight Rules
Wind Visibility Clouds
140° at 5 knots 10 miles
  • Few at 3,600' AGL
  • Scattered at 4,200' AGL
  • Broken at 4,900' AGL
Temperatures Readings
Current 12°C / 54°F
Dewpoint 12°C / 54°F
Humidity 100%
Altimeter 29.94" Hg
Pressure 1014 hPa
Elevation 4
METAR KGHG 232015Z AUTO 14005KT 10SM FEW036 SCT042 BKN049 12/12 A2994 RMK AO2
Observed Flight Rules
Oct-23 @ 20:15 UTC
(17 minutes ago)
VFR
Wind Visibility
140° at 5 knots 10 miles
Clouds
  • Few at 3,600' AGL
  • Scattered at 4,200' AGL
  • Broken at 4,900' AGL
Temperature Dewpoint
12°C / 54°F 12°C / 54°F
Humidity Altimeter Pressure
100% 29.94" Hg 1014 hPa